Terminal Aerodrome Forecast
Issued by NWS

Home | Current Version | Previous Version | Text Only | Print | Product List | Glossary On
Versions: 1 2 3 4 5 6 7 8 9 10 11 12 13 14
000
FTUS43 KIND 030316 AAA
TAFLAF
TAF AMD
KLAF 030316Z 0303/0324 21009KT P6SM SCT250
     FM030600 24008KT P6SM VCTS BKN035CB
      TEMPO 0307/0310 31012G28KT 3SM TSRA BKN025CB
     FM031100 25007KT P6SM SCT040 BKN100
     FM031500 31009KT P6SM SCT050
      AMD LTD TO CLD VIS AND WIND TIL 031300=

USA.gov is the U.S. government's official web portal to all federal, state and local government web resources and services.